Terminal Aerodrome Forecast
Issued by NWS

Current Version | Previous Version | Text Only | Print | Product List | Glossary Off
Versions: 1 2 3 4 5 6 7 8 9 10 11 12 13 14 15 16 17 18 19 20 21 22 23 24 25 26 27 28 29 30 31 32 33 34 35 36 37 38 39 40

000
FTUS41 KRNK 291032 AAA
TAFLWB
TAF AMD
KLWB 291032Z 2911/3006 00000KT P6SM SCT020 OVC100
      TEMPO 2911/2913 5SM -RA BR BKN020
     FM291400 00000KT P6SM SCT040 BKN100
     FM291600 VRB03KT 6SM -RA SCT015 OVC050
     FM292000 25003KT P6SM BKN040
     FM300300 00000KT 5SM BR SCT035=

USA.gov is the U.S. government's official web portal to all federal, state and local government web resources and services.